sensor_id;sensor_type;location;lat;lon;timestamp;P1;durP1;ratioP1;P2;durP2;ratioP2
13985;SDS011;7067;51.832;8.296;2022-07-06T00:00:30;8.32;;;0.90;;
13985;SDS011;7067;51.832;8.296;2022-07-06T00:02:55;2.90;;;1.10;;
13985;SDS011;7067;51.832;8.296;2022-07-06T00:05:21;2.05;;;1.45;;
13985;SDS011;7067;51.832;8.296;2022-07-06T00:07:46;2.15;;;1.10;;
13985;SDS011;7067;51.832;8.296;2022-07-06T00:10:11;6.03;;;1.15;;
13985;SDS011;7067;51.832;8.296;2022-07-06T00:12:37;1.90;;;1.10;;
13985;SDS011;7067;51.832;8.296;2022-07-06T00:15:02;2.50;;;0.73;;
13985;SDS011;7067;51.832;8.296;2022-07-06T00:17:31;5.28;;;1.40;;
13985;SDS011;7067;51.832;8.296;2022-07-06T00:19:56;2.15;;;1.17;;
13985;SDS011;7067;51.832;8.296;2022-07-06T00:22:21;2.22;;;0.80;;
13985;SDS011;7067;51.832;8.296;2022-07-06T00:24:47;3.33;;;1.10;;
13985;SDS011;7067;51.832;8.296;2022-07-06T00:27:14;1.60;;;1.00;;
13985;SDS011;7067;51.832;8.296;2022-07-06T00:29:40;3.70;;;1.10;;
13985;SDS011;7067;51.832;8.296;2022-07-06T00:32:08;7.43;;;1.13;;
13985;SDS011;7067;51.832;8.296;2022-07-06T00:34:34;2.03;;;0.88;;
13985;SDS011;7067;51.832;8.296;2022-07-06T00:37:00;6.07;;;1.45;;
13985;SDS011;7067;51.832;8.296;2022-07-06T00:39:25;3.13;;;1.02;;
13985;SDS011;7067;51.832;8.296;2022-07-06T00:41:54;3.25;;;0.90;;
13985;SDS011;7067;51.832;8.296;2022-07-06T00:44:20;6.35;;;1.25;;
13985;SDS011;7067;51.832;8.296;2022-07-06T00:46:45;1.50;;;1.00;;
13985;SDS011;7067;51.832;8.296;2022-07-06T00:49:11;3.08;;;1.10;;
13985;SDS011;7067;51.832;8.296;2022-07-06T00:51:56;4.63;;;1.73;;
13985;SDS011;7067;51.832;8.296;2022-07-06T00:54:22;1.58;;;1.00;;
13985;SDS011;7067;51.832;8.296;2022-07-06T00:56:48;3.20;;;1.15;;
13985;SDS011;7067;51.832;8.296;2022-07-06T00:59:13;1.73;;;1.10;;
13985;SDS011;7067;51.832;8.296;2022-07-06T01:01:39;1.88;;;1.15;;
13985;SDS011;7067;51.832;8.296;2022-07-06T01:04:04;1.88;;;1.38;;
13985;SDS011;7067;51.832;8.296;2022-07-06T01:06:29;3.83;;;1.55;;
13985;SDS011;7067;51.832;8.296;2022-07-06T01:08:55;2.08;;;1.23;;
13985;SDS011;7067;51.832;8.296;2022-07-06T01:11:20;1.38;;;1.10;;
13985;SDS011;7067;51.832;8.296;2022-07-06T01:13:47;2.17;;;1.10;;
13985;SDS011;7067;51.832;8.296;2022-07-06T01:16:12;5.03;;;1.20;;
13985;SDS011;7067;51.832;8.296;2022-07-06T01:18:38;3.00;;;1.15;;
13985;SDS011;7067;51.832;8.296;2022-07-06T01:21:21;1.70;;;1.00;;
13985;SDS011;7067;51.832;8.296;2022-07-06T01:23:47;5.30;;;1.58;;
13985;SDS011;7067;51.832;8.296;2022-07-06T01:26:13;5.13;;;1.30;;
13985;SDS011;7067;51.832;8.296;2022-07-06T01:28:44;3.33;;;1.23;;
13985;SDS011;7067;51.832;8.296;2022-07-06T01:33:43;1.77;;;1.02;;
13985;SDS011;7067;51.832;8.296;2022-07-06T01:36:09;1.98;;;1.15;;
13985;SDS011;7067;51.832;8.296;2022-07-06T01:38:50;4.43;;;1.20;;
13985;SDS011;7067;51.832;8.296;2022-07-06T01:41:20;2.17;;;1.15;;
13985;SDS011;7067;51.832;8.296;2022-07-06T01:43:45;2.97;;;1.20;;
13985;SDS011;7067;51.832;8.296;2022-07-06T01:46:11;3.60;;;1.38;;
13985;SDS011;7067;51.832;8.296;2022-07-06T01:48:37;3.20;;;1.45;;
13985;SDS011;7067;51.832;8.296;2022-07-06T01:51:03;4.88;;;1.27;;
13985;SDS011;7067;51.832;8.296;2022-07-06T01:53:29;5.88;;;1.48;;
13985;SDS011;7067;51.832;8.296;2022-07-06T01:55:54;3.00;;;1.77;;
13985;SDS011;7067;51.832;8.296;2022-07-06T01:58:19;2.53;;;1.10;;
13985;SDS011;7067;51.832;8.296;2022-07-06T02:00:45;2.28;;;1.30;;
13985;SDS011;7067;51.832;8.296;2022-07-06T02:03:10;3.22;;;1.80;;
13985;SDS011;7067;51.832;8.296;2022-07-06T02:05:35;2.50;;;1.20;;
13985;SDS011;7067;51.832;8.296;2022-07-06T02:08:01;5.10;;;1.33;;
13985;SDS011;7067;51.832;8.296;2022-07-06T02:10:26;3.55;;;1.05;;
13985;SDS011;7067;51.832;8.296;2022-07-06T02:12:52;1.92;;;1.20;;
13985;SDS011;7067;51.832;8.296;2022-07-06T02:15:17;3.70;;;1.35;;
13985;SDS011;7067;51.832;8.296;2022-07-06T02:17:42;2.67;;;1.30;;
13985;SDS011;7067;51.832;8.296;2022-07-06T02:20:08;2.40;;;1.40;;
13985;SDS011;7067;51.832;8.296;2022-07-06T02:22:33;3.35;;;1.58;;
13985;SDS011;7067;51.832;8.296;2022-07-06T02:24:59;3.25;;;1.20;;
13985;SDS011;7067;51.832;8.296;2022-07-06T02:27:24;3.28;;;1.40;;
13985;SDS011;7067;51.832;8.296;2022-07-06T02:29:50;3.95;;;1.48;;
13985;SDS011;7067;51.832;8.296;2022-07-06T02:32:15;3.65;;;1.30;;
13985;SDS011;7067;51.832;8.296;2022-07-06T02:34:41;3.38;;;1.00;;
13985;SDS011;7067;51.832;8.296;2022-07-06T02:37:06;4.53;;;1.40;;
13985;SDS011;7067;51.832;8.296;2022-07-06T02:39:31;2.03;;;1.35;;
13985;SDS011;7067;51.832;8.296;2022-07-06T02:41:57;2.58;;;1.02;;
13985;SDS011;7067;51.832;8.296;2022-07-06T02:44:22;4.70;;;1.38;;
13985;SDS011;7067;51.832;8.296;2022-07-06T02:46:48;5.30;;;1.85;;
13985;SDS011;7067;51.832;8.296;2022-07-06T02:49:13;4.70;;;1.55;;
13985;SDS011;7067;51.832;8.296;2022-07-06T02:51:38;3.15;;;1.38;;
13985;SDS011;7067;51.832;8.296;2022-07-06T02:54:04;3.13;;;1.60;;
13985;SDS011;7067;51.832;8.296;2022-07-06T02:56:29;6.65;;;2.25;;
13985;SDS011;7067;51.832;8.296;2022-07-06T02:58:55;8.68;;;2.00;;
13985;SDS011;7067;51.832;8.296;2022-07-06T03:01:20;3.40;;;1.50;;
13985;SDS011;7067;51.832;8.296;2022-07-06T03:03:45;6.63;;;1.40;;
13985;SDS011;7067;51.832;8.296;2022-07-06T03:06:11;5.05;;;1.52;;
13985;SDS011;7067;51.832;8.296;2022-07-06T03:08:36;2.28;;;1.27;;
13985;SDS011;7067;51.832;8.296;2022-07-06T03:11:02;2.97;;;1.48;;
13985;SDS011;7067;51.832;8.296;2022-07-06T03:13:27;2.72;;;1.65;;
13985;SDS011;7067;51.832;8.296;2022-07-06T03:15:53;2.63;;;1.02;;
13985;SDS011;7067;51.832;8.296;2022-07-06T03:18:19;3.90;;;1.25;;
13985;SDS011;7067;51.832;8.296;2022-07-06T03:20:44;4.20;;;1.70;;
13985;SDS011;7067;51.832;8.296;2022-07-06T03:23:10;5.97;;;1.70;;
13985;SDS011;7067;51.832;8.296;2022-07-06T03:25:35;4.63;;;1.48;;
13985;SDS011;7067;51.832;8.296;2022-07-06T03:28:01;4.78;;;2.00;;
13985;SDS011;7067;51.832;8.296;2022-07-06T03:30:26;6.07;;;1.55;;
13985;SDS011;7067;51.832;8.296;2022-07-06T03:32:51;2.97;;;1.65;;
13985;SDS011;7067;51.832;8.296;2022-07-06T03:35:17;5.18;;;1.40;;
13985;SDS011;7067;51.832;8.296;2022-07-06T03:37:42;4.25;;;1.67;;
13985;SDS011;7067;51.832;8.296;2022-07-06T03:40:08;3.10;;;1.48;;
13985;SDS011;7067;51.832;8.296;2022-07-06T03:42:35;5.90;;;1.55;;
13985;SDS011;7067;51.832;8.296;2022-07-06T03:45:00;4.53;;;1.67;;
13985;SDS011;7067;51.832;8.296;2022-07-06T03:47:26;4.85;;;1.85;;
13985;SDS011;7067;51.832;8.296;2022-07-06T03:49:51;3.97;;;1.92;;
13985;SDS011;7067;51.832;8.296;2022-07-06T03:52:16;4.25;;;1.67;;
13985;SDS011;7067;51.832;8.296;2022-07-06T03:54:42;5.28;;;1.85;;
13985;SDS011;7067;51.832;8.296;2022-07-06T03:57:07;2.45;;;1.95;;
13985;SDS011;7067;51.832;8.296;2022-07-06T03:59:33;7.32;;;1.90;;
13985;SDS011;7067;51.832;8.296;2022-07-06T04:01:58;4.03;;;1.80;;
13985;SDS011;7067;51.832;8.296;2022-07-06T04:04:23;6.28;;;2.47;;
13985;SDS011;7067;51.832;8.296;2022-07-06T04:06:49;2.58;;;2.33;;
13985;SDS011;7067;51.832;8.296;2022-07-06T04:09:14;3.95;;;2.33;;
13985;SDS011;7067;51.832;8.296;2022-07-06T04:11:39;3.65;;;2.00;;
13985;SDS011;7067;51.832;8.296;2022-07-06T04:14:05;6.63;;;2.75;;
13985;SDS011;7067;51.832;8.296;2022-07-06T04:16:30;4.68;;;2.72;;
13985;SDS011;7067;51.832;8.296;2022-07-06T04:18:56;2.20;;;1.98;;
13985;SDS011;7067;51.832;8.296;2022-07-06T04:21:21;2.80;;;2.05;;
13985;SDS011;7067;51.832;8.296;2022-07-06T04:23:46;5.43;;;2.63;;
13985;SDS011;7067;51.832;8.296;2022-07-06T04:26:12;5.25;;;2.80;;
13985;SDS011;7067;51.832;8.296;2022-07-06T04:28:37;4.47;;;2.42;;
13985;SDS011;7067;51.832;8.296;2022-07-06T04:31:02;2.80;;;2.20;;
13985;SDS011;7067;51.832;8.296;2022-07-06T04:33:28;4.38;;;2.20;;
13985;SDS011;7067;51.832;8.296;2022-07-06T04:35:53;5.57;;;2.22;;
13985;SDS011;7067;51.832;8.296;2022-07-06T04:38:18;3.13;;;1.88;;
13985;SDS011;7067;51.832;8.296;2022-07-06T04:40:44;7.28;;;2.22;;
13985;SDS011;7067;51.832;8.296;2022-07-06T04:43:11;5.55;;;2.08;;
13985;SDS011;7067;51.832;8.296;2022-07-06T04:45:37;9.57;;;1.85;;
13985;SDS011;7067;51.832;8.296;2022-07-06T04:48:02;2.67;;;2.35;;
13985;SDS011;7067;51.832;8.296;2022-07-06T04:50:28;6.95;;;2.20;;
13985;SDS011;7067;51.832;8.296;2022-07-06T04:52:54;4.38;;;2.28;;
13985;SDS011;7067;51.832;8.296;2022-07-06T04:55:19;2.45;;;1.48;;
13985;SDS011;7067;51.832;8.296;2022-07-06T04:57:45;2.17;;;1.50;;
13985;SDS011;7067;51.832;8.296;2022-07-06T05:00:10;2.20;;;1.60;;
13985;SDS011;7067;51.832;8.296;2022-07-06T05:02:36;4.72;;;2.03;;
13985;SDS011;7067;51.832;8.296;2022-07-06T05:05:01;3.22;;;1.90;;
13985;SDS011;7067;51.832;8.296;2022-07-06T05:07:27;5.47;;;1.95;;
13985;SDS011;7067;51.832;8.296;2022-07-06T05:09:54;3.55;;;2.75;;
13985;SDS011;7067;51.832;8.296;2022-07-06T05:12:20;5.05;;;1.80;;
13985;SDS011;7067;51.832;8.296;2022-07-06T05:14:45;2.65;;;2.03;;
13985;SDS011;7067;51.832;8.296;2022-07-06T05:17:11;2.65;;;1.55;;
13985;SDS011;7067;51.832;8.296;2022-07-06T05:19:36;2.60;;;1.52;;
13985;SDS011;7067;51.832;8.296;2022-07-06T05:22:01;3.75;;;1.88;;
13985;SDS011;7067;51.832;8.296;2022-07-06T05:24:27;6.00;;;2.15;;
13985;SDS011;7067;51.832;8.296;2022-07-06T05:26:52;3.03;;;1.77;;
13985;SDS011;7067;51.832;8.296;2022-07-06T05:29:18;5.57;;;2.15;;
13985;SDS011;7067;51.832;8.296;2022-07-06T05:31:43;2.55;;;1.75;;
13985;SDS011;7067;51.832;8.296;2022-07-06T05:34:08;4.47;;;1.58;;
13985;SDS011;7067;51.832;8.296;2022-07-06T05:36:34;5.45;;;2.40;;
13985;SDS011;7067;51.832;8.296;2022-07-06T05:38:59;3.88;;;2.10;;
13985;SDS011;7067;51.832;8.296;2022-07-06T05:41:24;4.65;;;1.88;;
13985;SDS011;7067;51.832;8.296;2022-07-06T05:43:50;4.00;;;2.42;;
13985;SDS011;7067;51.832;8.296;2022-07-06T05:46:15;3.55;;;1.88;;
13985;SDS011;7067;51.832;8.296;2022-07-06T05:48:40;3.40;;;2.05;;
13985;SDS011;7067;51.832;8.296;2022-07-06T05:51:24;7.93;;;2.88;;
13985;SDS011;7067;51.832;8.296;2022-07-06T05:53:49;4.82;;;2.80;;
13985;SDS011;7067;51.832;8.296;2022-07-06T05:56:15;6.05;;;3.33;;
13985;SDS011;7067;51.832;8.296;2022-07-06T05:58:40;6.38;;;3.20;;
13985;SDS011;7067;51.832;8.296;2022-07-06T06:01:05;3.90;;;2.92;;
13985;SDS011;7067;51.832;8.296;2022-07-06T06:03:33;6.65;;;3.75;;
13985;SDS011;7067;51.832;8.296;2022-07-06T06:05:59;7.10;;;4.30;;
13985;SDS011;7067;51.832;8.296;2022-07-06T06:08:25;8.43;;;4.82;;
13985;SDS011;7067;51.832;8.296;2022-07-06T06:10:50;6.63;;;3.92;;
13985;SDS011;7067;51.832;8.296;2022-07-06T06:13:16;9.20;;;3.97;;
13985;SDS011;7067;51.832;8.296;2022-07-06T06:15:41;5.03;;;4.30;;
13985;SDS011;7067;51.832;8.296;2022-07-06T06:18:07;4.07;;;3.22;;
13985;SDS011;7067;51.832;8.296;2022-07-06T06:20:32;7.75;;;3.50;;
13985;SDS011;7067;51.832;8.296;2022-07-06T06:22:58;3.08;;;2.63;;
13985;SDS011;7067;51.832;8.296;2022-07-06T06:25:33;5.43;;;2.90;;
13985;SDS011;7067;51.832;8.296;2022-07-06T06:28:00;5.50;;;2.20;;
13985;SDS011;7067;51.832;8.296;2022-07-06T06:30:27;3.47;;;2.53;;
13985;SDS011;7067;51.832;8.296;2022-07-06T06:33:04;5.80;;;2.20;;
13985;SDS011;7067;51.832;8.296;2022-07-06T06:35:33;3.80;;;2.17;;
13985;SDS011;7067;51.832;8.296;2022-07-06T06:37:58;3.67;;;1.70;;
13985;SDS011;7067;51.832;8.296;2022-07-06T06:40:24;3.65;;;1.75;;
13985;SDS011;7067;51.832;8.296;2022-07-06T06:42:49;7.47;;;2.00;;
13985;SDS011;7067;51.832;8.296;2022-07-06T06:45:14;2.95;;;1.55;;
13985;SDS011;7067;51.832;8.296;2022-07-06T06:47:40;5.57;;;1.75;;
13985;SDS011;7067;51.832;8.296;2022-07-06T06:50:05;4.68;;;1.70;;
13985;SDS011;7067;51.832;8.296;2022-07-06T06:52:31;4.18;;;1.45;;
13985;SDS011;7067;51.832;8.296;2022-07-06T06:54:56;5.45;;;1.50;;
13985;SDS011;7067;51.832;8.296;2022-07-06T06:57:22;3.58;;;2.05;;
13985;SDS011;7067;51.832;8.296;2022-07-06T06:59:47;7.88;;;1.60;;
13985;SDS011;7067;51.832;8.296;2022-07-06T07:02:13;5.70;;;1.42;;
13985;SDS011;7067;51.832;8.296;2022-07-06T07:04:38;3.05;;;1.42;;
13985;SDS011;7067;51.832;8.296;2022-07-06T07:07:03;2.33;;;1.25;;
13985;SDS011;7067;51.832;8.296;2022-07-06T07:09:29;5.28;;;1.33;;
13985;SDS011;7067;51.832;8.296;2022-07-06T07:11:54;6.85;;;1.70;;
13985;SDS011;7067;51.832;8.296;2022-07-06T07:14:20;4.80;;;1.70;;
13985;SDS011;7067;51.832;8.296;2022-07-06T07:16:45;5.93;;;1.30;;
13985;SDS011;7067;51.832;8.296;2022-07-06T07:19:11;1.92;;;1.08;;
13985;SDS011;7067;51.832;8.296;2022-07-06T07:21:36;2.15;;;1.00;;
13985;SDS011;7067;51.832;8.296;2022-07-06T07:24:01;2.42;;;1.20;;
13985;SDS011;7067;51.832;8.296;2022-07-06T07:26:27;5.78;;;0.82;;
13985;SDS011;7067;51.832;8.296;2022-07-06T07:28:52;4.53;;;0.80;;
13985;SDS011;7067;51.832;8.296;2022-07-06T07:31:18;5.65;;;0.90;;
13985;SDS011;7067;51.832;8.296;2022-07-06T07:33:43;2.10;;;0.70;;
13985;SDS011;7067;51.832;8.296;2022-07-06T07:36:08;3.65;;;0.73;;
13985;SDS011;7067;51.832;8.296;2022-07-06T07:38:34;3.55;;;0.75;;
13985;SDS011;7067;51.832;8.296;2022-07-06T07:40:59;4.07;;;0.95;;
13985;SDS011;7067;51.832;8.296;2022-07-06T07:43:25;5.50;;;0.70;;
13985;SDS011;7067;51.832;8.296;2022-07-06T07:45:50;3.50;;;0.82;;
13985;SDS011;7067;51.832;8.296;2022-07-06T07:48:15;11.07;;;0.90;;
13985;SDS011;7067;51.832;8.296;2022-07-06T07:50:41;2.05;;;0.73;;
13985;SDS011;7067;51.832;8.296;2022-07-06T07:53:07;2.33;;;0.77;;
13985;SDS011;7067;51.832;8.296;2022-07-06T07:55:32;5.88;;;0.95;;
13985;SDS011;7067;51.832;8.296;2022-07-06T07:57:58;3.80;;;1.33;;
13985;SDS011;7067;51.832;8.296;2022-07-06T08:00:23;5.10;;;1.20;;
13985;SDS011;7067;51.832;8.296;2022-07-06T08:02:49;4.18;;;0.93;;
13985;SDS011;7067;51.832;8.296;2022-07-06T08:05:15;3.58;;;0.57;;
13985;SDS011;7067;51.832;8.296;2022-07-06T08:07:43;3.75;;;1.23;;
13985;SDS011;7067;51.832;8.296;2022-07-06T08:10:09;4.47;;;1.02;;
13985;SDS011;7067;51.832;8.296;2022-07-06T08:12:35;5.57;;;1.48;;
13985;SDS011;7067;51.832;8.296;2022-07-06T08:15:01;3.08;;;0.80;;
13985;SDS011;7067;51.832;8.296;2022-07-06T08:17:26;3.58;;;0.95;;
13985;SDS011;7067;51.832;8.296;2022-07-06T08:19:52;3.85;;;0.90;;
13985;SDS011;7067;51.832;8.296;2022-07-06T08:22:17;3.05;;;0.68;;
13985;SDS011;7067;51.832;8.296;2022-07-06T08:24:43;2.78;;;0.93;;
13985;SDS011;7067;51.832;8.296;2022-07-06T08:27:08;3.33;;;0.50;;
13985;SDS011;7067;51.832;8.296;2022-07-06T08:29:33;2.50;;;0.65;;
13985;SDS011;7067;51.832;8.296;2022-07-06T08:31:59;3.83;;;0.95;;
13985;SDS011;7067;51.832;8.296;2022-07-06T08:34:24;3.28;;;0.70;;
13985;SDS011;7067;51.832;8.296;2022-07-06T08:36:49;4.97;;;1.15;;
13985;SDS011;7067;51.832;8.296;2022-07-06T08:39:15;2.40;;;0.30;;
13985;SDS011;7067;51.832;8.296;2022-07-06T08:41:41;2.05;;;0.65;;
13985;SDS011;7067;51.832;8.296;2022-07-06T08:44:07;3.65;;;1.27;;
13985;SDS011;7067;51.832;8.296;2022-07-06T08:46:33;3.65;;;0.90;;
13985;SDS011;7067;51.832;8.296;2022-07-06T08:49:00;5.95;;;0.82;;
13985;SDS011;7067;51.832;8.296;2022-07-06T08:51:25;3.08;;;0.60;;
13985;SDS011;7067;51.832;8.296;2022-07-06T08:53:52;3.35;;;0.50;;
13985;SDS011;7067;51.832;8.296;2022-07-06T08:56:18;2.42;;;0.40;;
13985;SDS011;7067;51.832;8.296;2022-07-06T08:58:44;2.78;;;0.65;;
13985;SDS011;7067;51.832;8.296;2022-07-06T09:01:10;5.10;;;1.10;;
13985;SDS011;7067;51.832;8.296;2022-07-06T09:03:36;6.50;;;0.55;;
13985;SDS011;7067;51.832;8.296;2022-07-06T09:06:01;3.97;;;1.35;;
13985;SDS011;7067;51.832;8.296;2022-07-06T09:08:27;4.40;;;0.63;;
13985;SDS011;7067;51.832;8.296;2022-07-06T09:10:54;9.98;;;2.03;;
13985;SDS011;7067;51.832;8.296;2022-07-06T09:13:19;3.95;;;1.40;;
13985;SDS011;7067;51.832;8.296;2022-07-06T09:15:45;5.40;;;1.40;;
13985;SDS011;7067;51.832;8.296;2022-07-06T09:18:10;3.83;;;0.85;;
13985;SDS011;7067;51.832;8.296;2022-07-06T09:20:35;2.30;;;0.80;;
13985;SDS011;7067;51.832;8.296;2022-07-06T09:23:02;5.50;;;1.00;;
13985;SDS011;7067;51.832;8.296;2022-07-06T09:25:30;2.90;;;1.00;;
13985;SDS011;7067;51.832;8.296;2022-07-06T09:27:56;3.58;;;1.00;;
13985;SDS011;7067;51.832;8.296;2022-07-06T09:30:23;2.30;;;0.70;;
13985;SDS011;7067;51.832;8.296;2022-07-06T09:32:52;2.25;;;0.52;;
13985;SDS011;7067;51.832;8.296;2022-07-06T09:35:20;1.43;;;0.60;;
13985;SDS011;7067;51.832;8.296;2022-07-06T09:37:47;6.85;;;0.68;;
13985;SDS011;7067;51.832;8.296;2022-07-06T09:40:37;5.75;;;0.77;;
13985;SDS011;7067;51.832;8.296;2022-07-06T09:43:20;1.67;;;0.40;;
13985;SDS011;7067;51.832;8.296;2022-07-06T09:45:56;2.47;;;0.68;;
13985;SDS011;7067;51.832;8.296;2022-07-06T09:48:22;5.03;;;0.93;;
13985;SDS011;7067;51.832;8.296;2022-07-06T09:50:56;6.05;;;0.73;;
13985;SDS011;7067;51.832;8.296;2022-07-06T09:53:23;1.92;;;0.50;;
13985;SDS011;7067;51.832;8.296;2022-07-06T09:55:50;4.10;;;0.40;;
13985;SDS011;7067;51.832;8.296;2022-07-06T09:58:17;3.05;;;0.60;;
13985;SDS011;7067;51.832;8.296;2022-07-06T10:00:43;3.28;;;0.50;;
13985;SDS011;7067;51.832;8.296;2022-07-06T10:03:11;5.75;;;0.60;;
13985;SDS011;7067;51.832;8.296;2022-07-06T10:05:37;3.60;;;0.95;;
13985;SDS011;7067;51.832;8.296;2022-07-06T10:08:04;2.65;;;0.68;;
13985;SDS011;7067;51.832;8.296;2022-07-06T10:10:31;3.83;;;0.70;;
13985;SDS011;7067;51.832;8.296;2022-07-06T10:12:58;3.58;;;0.95;;
13985;SDS011;7067;51.832;8.296;2022-07-06T10:15:27;1.95;;;0.47;;
13985;SDS011;7067;51.832;8.296;2022-07-06T10:17:57;5.28;;;0.50;;
13985;SDS011;7067;51.832;8.296;2022-07-06T10:20:22;4.53;;;0.50;;
13985;SDS011;7067;51.832;8.296;2022-07-06T10:22:48;3.65;;;0.57;;
13985;SDS011;7067;51.832;8.296;2022-07-06T10:25:18;2.28;;;0.40;;
13985;SDS011;7067;51.832;8.296;2022-07-06T10:27:47;2.70;;;0.77;;
13985;SDS011;7067;51.832;8.296;2022-07-06T10:30:13;0.97;;;0.30;;
13985;SDS011;7067;51.832;8.296;2022-07-06T10:32:41;4.72;;;0.50;;
13985;SDS011;7067;51.832;8.296;2022-07-06T10:35:07;3.30;;;0.40;;
13985;SDS011;7067;51.832;8.296;2022-07-06T10:37:33;2.40;;;0.60;;
13985;SDS011;7067;51.832;8.296;2022-07-06T10:39:59;2.90;;;0.60;;
13985;SDS011;7067;51.832;8.296;2022-07-06T10:45:12;3.15;;;0.80;;
13985;SDS011;7067;51.832;8.296;2022-07-06T10:47:42;1.80;;;0.30;;
13985;SDS011;7067;51.832;8.296;2022-07-06T10:50:08;1.85;;;0.50;;
13985;SDS011;7067;51.832;8.296;2022-07-06T10:52:53;1.48;;;0.40;;
13985;SDS011;7067;51.832;8.296;2022-07-06T10:55:27;2.72;;;0.25;;
13985;SDS011;7067;51.832;8.296;2022-07-06T10:57:56;4.32;;;0.40;;
13985;SDS011;7067;51.832;8.296;2022-07-06T11:00:22;1.63;;;0.40;;
13985;SDS011;7067;51.832;8.296;2022-07-06T11:02:47;1.65;;;0.30;;
13985;SDS011;7067;51.832;8.296;2022-07-06T11:08:08;1.13;;;0.35;;
13985;SDS011;7067;51.832;8.296;2022-07-06T11:10:47;1.10;;;0.82;;
13985;SDS011;7067;51.832;8.296;2022-07-06T11:13:28;2.58;;;0.40;;
13985;SDS011;7067;51.832;8.296;2022-07-06T11:16:00;1.05;;;0.20;;
13985;SDS011;7067;51.832;8.296;2022-07-06T11:18:38;1.42;;;0.20;;
13985;SDS011;7067;51.832;8.296;2022-07-06T11:21:14;3.17;;;0.55;;
13985;SDS011;7067;51.832;8.296;2022-07-06T11:23:42;1.20;;;0.40;;
13985;SDS011;7067;51.832;8.296;2022-07-06T11:26:09;4.82;;;0.75;;
13985;SDS011;7067;51.832;8.296;2022-07-06T11:28:35;2.08;;;0.47;;
13985;SDS011;7067;51.832;8.296;2022-07-06T11:31:02;3.15;;;0.35;;
13985;SDS011;7067;51.832;8.296;2022-07-06T11:33:28;2.58;;;0.40;;
13985;SDS011;7067;51.832;8.296;2022-07-06T11:36:11;3.47;;;0.80;;
13985;SDS011;7067;51.832;8.296;2022-07-06T11:38:40;3.08;;;0.38;;
13985;SDS011;7067;51.832;8.296;2022-07-06T11:41:06;1.50;;;0.40;;
13985;SDS011;7067;51.832;8.296;2022-07-06T11:43:32;1.42;;;0.30;;
13985;SDS011;7067;51.832;8.296;2022-07-06T11:45:58;3.00;;;0.70;;
13985;SDS011;7067;51.832;8.296;2022-07-06T11:48:23;2.30;;;0.70;;
13985;SDS011;7067;51.832;8.296;2022-07-06T11:51:01;2.60;;;0.22;;
13985;SDS011;7067;51.832;8.296;2022-07-06T11:53:27;2.13;;;0.57;;
13985;SDS011;7067;51.832;8.296;2022-07-06T11:55:53;1.02;;;0.20;;
13985;SDS011;7067;51.832;8.296;2022-07-06T11:58:20;2.28;;;0.90;;
13985;SDS011;7067;51.832;8.296;2022-07-06T12:01:08;2.53;;;0.30;;
13985;SDS011;7067;51.832;8.296;2022-07-06T12:03:34;1.27;;;0.30;;
13985;SDS011;7067;51.832;8.296;2022-07-06T12:06:06;0.93;;;0.28;;
13985;SDS011;7067;51.832;8.296;2022-07-06T12:08:40;2.53;;;0.40;;
13985;SDS011;7067;51.832;8.296;2022-07-06T12:13:41;2.38;;;0.65;;
13985;SDS011;7067;51.832;8.296;2022-07-06T12:16:12;3.40;;;0.93;;
13985;SDS011;7067;51.832;8.296;2022-07-06T12:18:40;2.58;;;0.40;;
13985;SDS011;7067;51.832;8.296;2022-07-06T12:21:09;1.45;;;0.32;;
13985;SDS011;7067;51.832;8.296;2022-07-06T12:23:42;0.80;;;0.40;;
13985;SDS011;7067;51.832;8.296;2022-07-06T12:26:09;0.90;;;0.28;;
13985;SDS011;7067;51.832;8.296;2022-07-06T12:28:35;2.83;;;0.50;;
13985;SDS011;7067;51.832;8.296;2022-07-06T12:31:00;1.35;;;0.45;;
13985;SDS011;7067;51.832;8.296;2022-07-06T12:33:26;2.58;;;0.20;;
13985;SDS011;7067;51.832;8.296;2022-07-06T12:35:53;1.92;;;0.40;;
13985;SDS011;7067;51.832;8.296;2022-07-06T12:38:22;1.73;;;0.22;;
13985;SDS011;7067;51.832;8.296;2022-07-06T12:40:48;0.77;;;0.40;;
13985;SDS011;7067;51.832;8.296;2022-07-06T12:43:14;2.47;;;0.30;;
13985;SDS011;7067;51.832;8.296;2022-07-06T12:45:59;3.67;;;0.47;;
13985;SDS011;7067;51.832;8.296;2022-07-06T12:48:25;0.73;;;0.20;;
13985;SDS011;7067;51.832;8.296;2022-07-06T12:50:50;0.90;;;0.30;;
13985;SDS011;7067;51.832;8.296;2022-07-06T12:53:26;0.75;;;0.20;;
13985;SDS011;7067;51.832;8.296;2022-07-06T12:56:08;2.58;;;0.77;;
13985;SDS011;7067;51.832;8.296;2022-07-06T12:58:36;1.00;;;0.38;;
13985;SDS011;7067;51.832;8.296;2022-07-06T13:01:02;1.55;;;0.40;;
13985;SDS011;7067;51.832;8.296;2022-07-06T13:03:27;1.15;;;0.63;;
13985;SDS011;7067;51.832;8.296;2022-07-06T13:05:52;1.52;;;0.40;;
13985;SDS011;7067;51.832;8.296;2022-07-06T13:08:18;2.15;;;0.20;;
13985;SDS011;7067;51.832;8.296;2022-07-06T13:10:43;2.28;;;0.43;;
13985;SDS011;7067;51.832;8.296;2022-07-06T13:13:10;0.75;;;0.13;;
13985;SDS011;7067;51.832;8.296;2022-07-06T13:15:36;0.85;;;0.28;;
13985;SDS011;7067;51.832;8.296;2022-07-06T13:18:02;1.95;;;0.30;;
13985;SDS011;7067;51.832;8.296;2022-07-06T13:20:27;3.42;;;0.30;;
13985;SDS011;7067;51.832;8.296;2022-07-06T13:22:53;2.67;;;0.45;;
13985;SDS011;7067;51.832;8.296;2022-07-06T13:25:19;2.25;;;0.45;;
13985;SDS011;7067;51.832;8.296;2022-07-06T13:27:44;2.15;;;0.75;;
13985;SDS011;7067;51.832;8.296;2022-07-06T13:30:10;1.92;;;0.50;;
13985;SDS011;7067;51.832;8.296;2022-07-06T13:32:36;1.33;;;0.55;;
13985;SDS011;7067;51.832;8.296;2022-07-06T13:35:01;2.88;;;0.43;;
13985;SDS011;7067;51.832;8.296;2022-07-06T13:37:27;1.77;;;0.50;;
13985;SDS011;7067;51.832;8.296;2022-07-06T13:39:52;3.58;;;0.40;;
13985;SDS011;7067;51.832;8.296;2022-07-06T13:42:17;2.17;;;0.52;;
13985;SDS011;7067;51.832;8.296;2022-07-06T13:44:43;1.85;;;0.40;;
13985;SDS011;7067;51.832;8.296;2022-07-06T13:47:08;2.25;;;0.40;;
13985;SDS011;7067;51.832;8.296;2022-07-06T13:49:34;1.42;;;0.30;;
13985;SDS011;7067;51.832;8.296;2022-07-06T13:52:00;1.95;;;0.50;;
13985;SDS011;7067;51.832;8.296;2022-07-06T13:54:28;2.08;;;0.32;;
13985;SDS011;7067;51.832;8.296;2022-07-06T13:56:55;0.65;;;0.35;;
13985;SDS011;7067;51.832;8.296;2022-07-06T13:59:20;1.20;;;0.45;;
13985;SDS011;7067;51.832;8.296;2022-07-06T14:01:45;2.35;;;0.57;;
13985;SDS011;7067;51.832;8.296;2022-07-06T14:04:11;2.70;;;0.45;;
13985;SDS011;7067;51.832;8.296;2022-07-06T14:06:36;1.85;;;0.52;;
13985;SDS011;7067;51.832;8.296;2022-07-06T14:09:01;1.95;;;0.20;;
13985;SDS011;7067;51.832;8.296;2022-07-06T14:11:27;0.80;;;0.38;;
13985;SDS011;7067;51.832;8.296;2022-07-06T14:13:52;1.35;;;0.30;;
13985;SDS011;7067;51.832;8.296;2022-07-06T14:16:38;3.13;;;1.17;;
13985;SDS011;7067;51.832;8.296;2022-07-06T14:19:05;1.65;;;0.40;;
13985;SDS011;7067;51.832;8.296;2022-07-06T14:21:30;1.15;;;0.20;;
13985;SDS011;7067;51.832;8.296;2022-07-06T14:23:56;2.17;;;0.20;;
13985;SDS011;7067;51.832;8.296;2022-07-06T14:26:21;0.85;;;0.22;;
13985;SDS011;7067;51.832;8.296;2022-07-06T14:28:47;1.05;;;0.40;;
13985;SDS011;7067;51.832;8.296;2022-07-06T14:31:12;2.67;;;0.40;;
13985;SDS011;7067;51.832;8.296;2022-07-06T14:33:37;1.80;;;0.52;;
13985;SDS011;7067;51.832;8.296;2022-07-06T14:36:03;0.98;;;0.30;;
13985;SDS011;7067;51.832;8.296;2022-07-06T14:38:28;2.83;;;0.95;;
13985;SDS011;7067;51.832;8.296;2022-07-06T14:40:54;2.13;;;0.20;;
13985;SDS011;7067;51.832;8.296;2022-07-06T14:43:20;0.90;;;0.30;;
13985;SDS011;7067;51.832;8.296;2022-07-06T14:45:46;0.40;;;0.20;;
13985;SDS011;7067;51.832;8.296;2022-07-06T14:48:12;1.85;;;0.30;;
13985;SDS011;7067;51.832;8.296;2022-07-06T14:50:38;3.40;;;0.40;;
13985;SDS011;7067;51.832;8.296;2022-07-06T14:53:03;2.22;;;0.80;;
13985;SDS011;7067;51.832;8.296;2022-07-06T14:55:29;2.65;;;0.30;;
13985;SDS011;7067;51.832;8.296;2022-07-06T14:57:55;0.75;;;0.20;;
13985;SDS011;7067;51.832;8.296;2022-07-06T15:00:20;2.22;;;0.45;;
13985;SDS011;7067;51.832;8.296;2022-07-06T15:02:46;1.10;;;0.22;;
13985;SDS011;7067;51.832;8.296;2022-07-06T15:05:12;1.25;;;0.30;;
13985;SDS011;7067;51.832;8.296;2022-07-06T15:07:38;1.02;;;0.20;;